sensor_id;sensor_type;location;lat;lon;timestamp;pressure;altitude;pressure_sealevel;temperature;humidity
56992;BME280;42885;49.754;18.636;2023-05-22T00:01:43;98386.59;;;17.16;100.00
56992;BME280;42885;49.754;18.636;2023-05-22T00:04:15;98383.88;;;17.12;100.00
56992;BME280;42885;49.754;18.636;2023-05-22T00:06:48;98388.27;;;17.17;100.00
56992;BME280;42885;49.754;18.636;2023-05-22T00:09:19;98388.36;;;16.63;100.00
56992;BME280;42885;49.754;18.636;2023-05-22T00:11:50;98383.89;;;16.48;100.00
56992;BME280;42885;49.754;18.636;2023-05-22T00:14:21;98385.94;;;16.12;100.00
56992;BME280;42885;49.754;18.636;2023-05-22T00:16:52;98381.62;;;16.44;100.00
56992;BME280;42885;49.754;18.636;2023-05-22T00:19:25;98380.31;;;16.11;100.00
56992;BME280;42885;49.754;18.636;2023-05-22T00:21:57;98382.30;;;15.80;100.00
56992;BME280;42885;49.754;18.636;2023-05-22T00:24:28;98379.69;;;16.13;100.00
56992;BME280;42885;49.754;18.636;2023-05-22T00:27:00;98376.30;;;16.28;100.00
56992;BME280;42885;49.754;18.636;2023-05-22T00:29:31;98377.70;;;16.32;100.00
56992;BME280;42885;49.754;18.636;2023-05-22T00:32:02;98370.72;;;16.37;100.00
56992;BME280;42885;49.754;18.636;2023-05-22T00:34:33;98365.94;;;16.31;100.00
56992;BME280;42885;49.754;18.636;2023-05-22T00:37:04;98365.30;;;16.17;100.00
56992;BME280;42885;49.754;18.636;2023-05-22T00:39:36;98361.33;;;15.67;100.00
56992;BME280;42885;49.754;18.636;2023-05-22T00:42:08;98370.77;;;15.99;100.00
56992;BME280;42885;49.754;18.636;2023-05-22T00:44:39;98367.66;;;15.76;100.00
56992;BME280;42885;49.754;18.636;2023-05-22T00:47:10;98369.69;;;15.84;100.00
56992;BME280;42885;49.754;18.636;2023-05-22T00:49:41;98366.80;;;15.93;100.00
56992;BME280;42885;49.754;18.636;2023-05-22T00:52:13;98364.06;;;15.83;100.00
56992;BME280;42885;49.754;18.636;2023-05-22T00:54:45;98364.77;;;15.85;100.00
56992;BME280;42885;49.754;18.636;2023-05-22T00:57:17;98369.42;;;16.31;100.00
56992;BME280;42885;49.754;18.636;2023-05-22T00:59:48;98364.68;;;15.69;100.00
56992;BME280;42885;49.754;18.636;2023-05-22T01:02:19;98364.02;;;15.39;100.00
56992;BME280;42885;49.754;18.636;2023-05-22T01:04:51;98364.36;;;15.57;100.00
56992;BME280;42885;49.754;18.636;2023-05-22T01:07:24;98361.36;;;15.45;100.00
56992;BME280;42885;49.754;18.636;2023-05-22T01:09:55;98360.64;;;15.31;100.00
56992;BME280;42885;49.754;18.636;2023-05-22T01:15:43;98358.84;;;15.37;100.00
56992;BME280;42885;49.754;18.636;2023-05-22T01:18:22;98355.74;;;15.21;100.00
56992;BME280;42885;49.754;18.636;2023-05-22T01:21:12;98361.48;;;15.14;100.00
56992;BME280;42885;49.754;18.636;2023-05-22T01:24:07;98364.25;;;15.24;100.00
56992;BME280;42885;49.754;18.636;2023-05-22T01:32:19;98357.67;;;15.36;100.00
56992;BME280;42885;49.754;18.636;2023-05-22T01:34:51;98353.84;;;15.28;100.00
56992;BME280;42885;49.754;18.636;2023-05-22T01:37:24;98353.95;;;15.44;100.00
56992;BME280;42885;49.754;18.636;2023-05-22T01:39:55;98356.11;;;15.33;100.00
56992;BME280;42885;49.754;18.636;2023-05-22T01:42:27;98354.19;;;15.35;100.00
56992;BME280;42885;49.754;18.636;2023-05-22T01:44:58;98359.10;;;15.34;100.00
56992;BME280;42885;49.754;18.636;2023-05-22T01:47:29;98360.77;;;15.35;100.00
56992;BME280;42885;49.754;18.636;2023-05-22T01:50:02;98368.22;;;15.36;100.00
56992;BME280;42885;49.754;18.636;2023-05-22T01:52:59;98367.23;;;15.31;100.00
56992;BME280;42885;49.754;18.636;2023-05-22T01:58:30;98366.78;;;15.20;100.00
56992;BME280;42885;49.754;18.636;2023-05-22T02:01:01;98363.28;;;15.25;100.00
56992;BME280;42885;49.754;18.636;2023-05-22T02:03:34;98363.41;;;15.12;100.00
56992;BME280;42885;49.754;18.636;2023-05-22T02:06:09;98359.94;;;14.95;100.00
56992;BME280;42885;49.754;18.636;2023-05-22T02:08:41;98359.68;;;14.75;100.00
56992;BME280;42885;49.754;18.636;2023-05-22T02:11:13;98360.04;;;14.76;100.00
56992;BME280;42885;49.754;18.636;2023-05-22T02:13:45;98359.94;;;14.95;100.00
56992;BME280;42885;49.754;18.636;2023-05-22T02:16:16;98357.76;;;14.83;100.00
56992;BME280;42885;49.754;18.636;2023-05-22T02:18:49;98359.08;;;14.89;100.00
56992;BME280;42885;49.754;18.636;2023-05-22T02:21:22;98365.91;;;14.91;100.00
56992;BME280;42885;49.754;18.636;2023-05-22T02:23:53;98359.22;;;14.93;100.00
56992;BME280;42885;49.754;18.636;2023-05-22T02:26:24;98349.78;;;14.60;100.00
56992;BME280;42885;49.754;18.636;2023-05-22T02:28:55;98349.78;;;14.60;100.00
56992;BME280;42885;49.754;18.636;2023-05-22T02:31:27;98345.02;;;14.71;100.00
56992;BME280;42885;49.754;18.636;2023-05-22T02:33:59;98345.02;;;14.71;100.00
56992;BME280;42885;49.754;18.636;2023-05-22T02:36:30;98343.38;;;14.76;100.00
56992;BME280;42885;49.754;18.636;2023-05-22T02:39:01;98345.38;;;14.25;100.00
56992;BME280;42885;49.754;18.636;2023-05-22T02:41:32;98344.76;;;14.57;100.00
56992;BME280;42885;49.754;18.636;2023-05-22T02:44:03;98343.59;;;14.67;100.00
56992;BME280;42885;49.754;18.636;2023-05-22T02:46:34;98349.59;;;14.33;100.00
56992;BME280;42885;49.754;18.636;2023-05-22T02:49:05;98347.05;;;14.20;100.00
56992;BME280;42885;49.754;18.636;2023-05-22T02:51:36;98347.48;;;14.44;100.00
56992;BME280;42885;49.754;18.636;2023-05-22T02:54:07;98349.66;;;14.50;100.00
56992;BME280;42885;49.754;18.636;2023-05-22T02:56:38;98344.51;;;14.54;100.00
56992;BME280;42885;49.754;18.636;2023-05-22T02:59:09;98343.59;;;14.67;100.00
56992;BME280;42885;49.754;18.636;2023-05-22T03:01:40;98341.16;;;14.52;100.00
56992;BME280;42885;49.754;18.636;2023-05-22T03:04:12;98346.17;;;14.50;100.00
56992;BME280;42885;49.754;18.636;2023-05-22T03:06:43;98349.75;;;14.37;100.00
56992;BME280;42885;49.754;18.636;2023-05-22T03:09:15;98349.50;;;14.40;100.00
56992;BME280;42885;49.754;18.636;2023-05-22T03:11:47;98341.52;;;14.53;100.00
56992;BME280;42885;49.754;18.636;2023-05-22T03:14:18;98341.36;;;14.38;100.00
56992;BME280;42885;49.754;18.636;2023-05-22T03:16:49;98339.48;;;14.45;100.00
56992;BME280;42885;49.754;18.636;2023-05-22T03:19:21;98345.55;;;14.35;100.00
56992;BME280;42885;49.754;18.636;2023-05-22T03:21:53;98346.98;;;14.39;100.00
56992;BME280;42885;49.754;18.636;2023-05-22T03:24:24;98349.95;;;14.34;100.00
56992;BME280;42885;49.754;18.636;2023-05-22T03:26:56;98349.08;;;14.22;100.00
56992;BME280;42885;49.754;18.636;2023-05-22T03:29:28;98355.54;;;14.18;100.00
56992;BME280;42885;49.754;18.636;2023-05-22T03:32:00;98360.36;;;14.00;100.00
56992;BME280;42885;49.754;18.636;2023-05-22T03:34:32;98360.02;;;14.04;100.00
56992;BME280;42885;49.754;18.636;2023-05-22T03:37:04;98354.91;;;14.09;100.00
56992;BME280;42885;49.754;18.636;2023-05-22T03:39:37;98354.94;;;14.20;100.00
56992;BME280;42885;49.754;18.636;2023-05-22T03:42:10;98354.66;;;14.42;100.00
56992;BME280;42885;49.754;18.636;2023-05-22T03:44:42;98354.58;;;14.61;100.00
56992;BME280;42885;49.754;18.636;2023-05-22T03:47:13;98352.84;;;14.78;100.00
56992;BME280;42885;49.754;18.636;2023-05-22T03:49:44;98354.06;;;14.91;100.00
56992;BME280;42885;49.754;18.636;2023-05-22T03:52:15;98349.98;;;15.10;100.00
56992;BME280;42885;49.754;18.636;2023-05-22T03:54:46;98349.64;;;15.03;100.00
56992;BME280;42885;49.754;18.636;2023-05-22T03:57:18;98349.27;;;15.08;100.00
56992;BME280;42885;49.754;18.636;2023-05-22T03:59:49;98347.73;;;15.17;100.00
56992;BME280;42885;49.754;18.636;2023-05-22T04:02:20;98343.06;;;15.20;100.00
56992;BME280;42885;49.754;18.636;2023-05-22T04:04:53;98354.20;;;14.95;100.00
56992;BME280;42885;49.754;18.636;2023-05-22T04:07:26;98347.13;;;15.13;100.00
56992;BME280;42885;49.754;18.636;2023-05-22T04:09:57;98347.13;;;15.19;100.00
56992;BME280;42885;49.754;18.636;2023-05-22T04:12:28;98354.41;;;14.86;100.00
56992;BME280;42885;49.754;18.636;2023-05-22T04:14:59;98343.64;;;15.12;100.00
56992;BME280;42885;49.754;18.636;2023-05-22T04:17:38;98346.27;;;15.18;100.00
56992;BME280;42885;49.754;18.636;2023-05-22T04:20:08;98347.71;;;15.28;100.00
56992;BME280;42885;49.754;18.636;2023-05-22T04:22:40;98345.88;;;15.51;100.00
56992;BME280;42885;49.754;18.636;2023-05-22T04:25:11;98347.58;;;15.41;100.00
56992;BME280;42885;49.754;18.636;2023-05-22T04:27:43;98351.04;;;15.53;100.00
56992;BME280;42885;49.754;18.636;2023-05-22T04:30:15;98346.23;;;15.64;100.00
56992;BME280;42885;49.754;18.636;2023-05-22T04:32:47;98346.55;;;15.82;100.00
56992;BME280;42885;49.754;18.636;2023-05-22T04:35:18;98340.41;;;15.87;100.00
56992;BME280;42885;49.754;18.636;2023-05-22T04:37:49;98341.87;;;15.86;100.00
56992;BME280;42885;49.754;18.636;2023-05-22T04:40:23;98339.13;;;15.76;100.00
56992;BME280;42885;49.754;18.636;2023-05-22T04:42:55;98350.02;;;15.82;100.00
56992;BME280;42885;49.754;18.636;2023-05-22T04:45:28;98343.61;;;16.35;100.00
56992;BME280;42885;49.754;18.636;2023-05-22T04:48:00;98343.61;;;16.35;100.00
56992;BME280;42885;49.754;18.636;2023-05-22T04:50:33;98339.71;;;16.23;100.00
56992;BME280;42885;49.754;18.636;2023-05-22T04:53:05;98342.75;;;16.40;100.00
56992;BME280;42885;49.754;18.636;2023-05-22T04:55:36;98336.59;;;16.82;100.00
56992;BME280;42885;49.754;18.636;2023-05-22T04:58:08;98332.11;;;16.88;100.00
56992;BME280;42885;49.754;18.636;2023-05-22T05:00:39;98334.63;;;17.05;100.00
56992;BME280;42885;49.754;18.636;2023-05-22T05:03:11;98336.38;;;17.42;100.00
56992;BME280;42885;49.754;18.636;2023-05-22T05:05:43;98336.78;;;17.37;100.00
56992;BME280;42885;49.754;18.636;2023-05-22T05:08:14;98335.28;;;17.54;100.00
56992;BME280;42885;49.754;18.636;2023-05-22T05:10:46;98329.89;;;17.66;100.00
56992;BME280;42885;49.754;18.636;2023-05-22T05:13:17;98328.92;;;17.86;100.00
56992;BME280;42885;49.754;18.636;2023-05-22T05:15:48;98332.25;;;17.69;100.00
56992;BME280;42885;49.754;18.636;2023-05-22T05:18:19;98325.86;;;17.91;100.00
56992;BME280;42885;49.754;18.636;2023-05-22T05:20:50;98325.50;;;18.15;100.00
56992;BME280;42885;49.754;18.636;2023-05-22T05:23:21;98331.34;;;18.19;100.00
56992;BME280;42885;49.754;18.636;2023-05-22T05:25:52;98336.44;;;18.26;100.00
56992;BME280;42885;49.754;18.636;2023-05-22T05:28:23;98332.81;;;18.61;100.00
56992;BME280;42885;49.754;18.636;2023-05-22T05:30:55;98334.19;;;18.41;100.00
56992;BME280;42885;49.754;18.636;2023-05-22T05:33:28;98336.27;;;18.95;100.00
56992;BME280;42885;49.754;18.636;2023-05-22T05:36:01;98331.82;;;19.06;100.00
56992;BME280;42885;49.754;18.636;2023-05-22T05:38:32;98332.81;;;19.19;100.00
56992;BME280;42885;49.754;18.636;2023-05-22T05:41:04;98330.83;;;19.35;99.83
56992;BME280;42885;49.754;18.636;2023-05-22T05:43:36;98334.03;;;19.38;100.00
56992;BME280;42885;49.754;18.636;2023-05-22T05:46:09;98332.05;;;19.54;99.23
56992;BME280;42885;49.754;18.636;2023-05-22T05:48:40;98327.95;;;19.74;97.97
56992;BME280;42885;49.754;18.636;2023-05-22T05:51:11;98318.72;;;19.64;96.37
56992;BME280;42885;49.754;18.636;2023-05-22T05:53:43;98313.09;;;19.81;94.24
56992;BME280;42885;49.754;18.636;2023-05-22T05:56:14;98321.42;;;20.63;93.97
56992;BME280;42885;49.754;18.636;2023-05-22T05:58:45;98323.32;;;20.08;89.96
56992;BME280;42885;49.754;18.636;2023-05-22T06:01:34;98321.19;;;19.94;88.09
56992;BME280;42885;49.754;18.636;2023-05-22T06:04:05;98321.39;;;20.37;86.80
56992;BME280;42885;49.754;18.636;2023-05-22T06:06:39;98307.91;;;21.14;88.01
56992;BME280;42885;49.754;18.636;2023-05-22T06:09:15;98311.56;;;20.33;84.07
56992;BME280;42885;49.754;18.636;2023-05-22T06:12:04;98308.03;;;20.51;82.04
56992;BME280;42885;49.754;18.636;2023-05-22T06:14:35;98305.85;;;20.73;81.90
56992;BME280;42885;49.754;18.636;2023-05-22T06:17:07;98306.02;;;21.02;81.40
56992;BME280;42885;49.754;18.636;2023-05-22T06:19:42;98302.98;;;20.88;80.91
56992;BME280;42885;49.754;18.636;2023-05-22T06:22:13;98305.85;;;20.73;80.11
56992;BME280;42885;49.754;18.636;2023-05-22T06:24:45;98303.35;;;20.98;79.31
56992;BME280;42885;49.754;18.636;2023-05-22T06:27:17;98306.31;;;20.90;78.34
56992;BME280;42885;49.754;18.636;2023-05-22T06:29:49;98300.58;;;21.67;79.68
56992;BME280;42885;49.754;18.636;2023-05-22T06:32:21;98300.53;;;20.73;79.86
56992;BME280;42885;49.754;18.636;2023-05-22T06:34:53;98295.70;;;20.72;80.26
56992;BME280;42885;49.754;18.636;2023-05-22T06:37:24;98293.08;;;21.07;78.92
56992;BME280;42885;49.754;18.636;2023-05-22T06:39:55;98297.55;;;21.02;80.36
56992;BME280;42885;49.754;18.636;2023-05-22T06:42:43;98293.93;;;21.12;79.79
56992;BME280;42885;49.754;18.636;2023-05-22T06:45:28;98292.38;;;21.44;79.82
56992;BME280;42885;49.754;18.636;2023-05-22T06:48:04;98301.03;;;21.42;78.16
56992;BME280;42885;49.754;18.636;2023-05-22T06:50:37;98293.48;;;21.89;78.50
56992;BME280;42885;49.754;18.636;2023-05-22T06:53:10;98299.64;;;21.93;79.44
56992;BME280;42885;49.754;18.636;2023-05-22T06:55:41;98296.81;;;22.16;79.28
56992;BME280;42885;49.754;18.636;2023-05-22T06:58:15;98299.31;;;22.00;74.52
56992;BME280;42885;49.754;18.636;2023-05-22T07:00:46;98294.16;;;22.03;77.14
56992;BME280;42885;49.754;18.636;2023-05-22T07:03:19;98296.81;;;21.86;77.22
56992;BME280;42885;49.754;18.636;2023-05-22T07:05:55;98294.66;;;22.32;73.23
56992;BME280;42885;49.754;18.636;2023-05-22T07:08:28;98295.32;;;22.38;74.25
56992;BME280;42885;49.754;18.636;2023-05-22T07:10:59;98293.80;;;22.31;74.86
56992;BME280;42885;49.754;18.636;2023-05-22T07:13:31;98290.80;;;22.67;72.19
56992;BME280;42885;49.754;18.636;2023-05-22T07:16:02;98286.23;;;22.85;69.07
56992;BME280;42885;49.754;18.636;2023-05-22T07:18:34;98290.19;;;23.05;69.64
56992;BME280;42885;49.754;18.636;2023-05-22T07:21:06;98287.92;;;22.77;66.54
56992;BME280;42885;49.754;18.636;2023-05-22T07:23:38;98289.81;;;22.44;67.46
56992;BME280;42885;49.754;18.636;2023-05-22T07:26:10;98287.30;;;22.42;65.66
56992;BME280;42885;49.754;18.636;2023-05-22T07:28:44;98288.00;;;22.23;65.22
56992;BME280;42885;49.754;18.636;2023-05-22T07:31:17;98286.82;;;22.59;67.47
56992;BME280;42885;49.754;18.636;2023-05-22T07:33:48;98280.13;;;23.12;64.40
56992;BME280;42885;49.754;18.636;2023-05-22T07:36:19;98286.89;;;22.91;63.41
56992;BME280;42885;49.754;18.636;2023-05-22T07:38:51;98291.67;;;23.08;62.10
56992;BME280;42885;49.754;18.636;2023-05-22T07:41:22;98284.25;;;23.27;61.33
56992;BME280;42885;49.754;18.636;2023-05-22T07:43:53;98282.75;;;23.24;63.11
56992;BME280;42885;49.754;18.636;2023-05-22T07:46:25;98279.44;;;23.22;60.62
56992;BME280;42885;49.754;18.636;2023-05-22T07:48:58;98287.24;;;22.83;62.28
56992;BME280;42885;49.754;18.636;2023-05-22T07:51:29;98279.66;;;23.48;60.87
56992;BME280;42885;49.754;18.636;2023-05-22T07:54:01;98280.40;;;23.33;59.59
56992;BME280;42885;49.754;18.636;2023-05-22T07:56:31;98282.95;;;23.14;59.87
56992;BME280;42885;49.754;18.636;2023-05-22T07:59:04;98279.93;;;23.57;59.31
56992;BME280;42885;49.754;18.636;2023-05-22T08:01:36;98273.98;;;23.74;58.26
56992;BME280;42885;49.754;18.636;2023-05-22T08:04:07;98273.25;;;23.81;58.50
56992;BME280;42885;49.754;18.636;2023-05-22T08:06:38;98271.96;;;23.76;56.93
56992;BME280;42885;49.754;18.636;2023-05-22T08:09:10;98268.50;;;23.68;58.16
56992;BME280;42885;49.754;18.636;2023-05-22T08:11:41;98267.91;;;23.81;57.51
56992;BME280;42885;49.754;18.636;2023-05-22T08:14:12;98272.01;;;23.91;56.89
56992;BME280;42885;49.754;18.636;2023-05-22T08:16:43;98268.75;;;23.81;56.15
56992;BME280;42885;49.754;18.636;2023-05-22T08:19:14;98266.03;;;23.85;58.02
56992;BME280;42885;49.754;18.636;2023-05-22T08:21:45;98269.97;;;23.98;57.08
56992;BME280;42885;49.754;18.636;2023-05-22T08:24:16;98260.80;;;23.49;56.30
56992;BME280;42885;49.754;18.636;2023-05-22T08:26:47;98272.34;;;23.42;57.59
56992;BME280;42885;49.754;18.636;2023-05-22T08:29:18;98269.08;;;23.82;56.50
56992;BME280;42885;49.754;18.636;2023-05-22T08:31:49;98268.05;;;24.30;55.47
56992;BME280;42885;49.754;18.636;2023-05-22T08:34:22;98268.91;;;24.45;54.37
56992;BME280;42885;49.754;18.636;2023-05-22T08:36:52;98262.12;;;25.40;55.42
56992;BME280;42885;49.754;18.636;2023-05-22T08:39:23;98260.36;;;24.61;52.03
56992;BME280;42885;49.754;18.636;2023-05-22T08:41:54;98263.33;;;24.17;53.85
56992;BME280;42885;49.754;18.636;2023-05-22T08:44:25;98263.20;;;24.44;53.86
56992;BME280;42885;49.754;18.636;2023-05-22T08:46:59;98260.94;;;24.71;52.53
56992;BME280;42885;49.754;18.636;2023-05-22T08:49:30;98262.08;;;24.58;53.38
56992;BME280;42885;49.754;18.636;2023-05-22T08:52:04;98258.72;;;25.05;54.72
56992;BME280;42885;49.754;18.636;2023-05-22T08:54:36;98261.84;;;24.64;50.82
56992;BME280;42885;49.754;18.636;2023-05-22T08:57:08;98255.45;;;24.54;52.24
56992;BME280;42885;49.754;18.636;2023-05-22T08:59:39;98248.67;;;25.18;51.76
56992;BME280;42885;49.754;18.636;2023-05-22T09:02:12;98249.77;;;25.50;50.77
56992;BME280;42885;49.754;18.636;2023-05-22T09:04:43;98248.45;;;25.35;49.51
56992;BME280;42885;49.754;18.636;2023-05-22T09:07:14;98247.22;;;25.52;49.21
56992;BME280;42885;49.754;18.636;2023-05-22T09:09:45;98244.42;;;25.82;47.91
56992;BME280;42885;49.754;18.636;2023-05-22T09:12:16;98243.98;;;25.79;46.08
56992;BME280;42885;49.754;18.636;2023-05-22T09:14:47;98235.53;;;26.04;45.22
56992;BME280;42885;49.754;18.636;2023-05-22T09:17:19;98238.30;;;26.00;45.43
56992;BME280;42885;49.754;18.636;2023-05-22T09:19:50;98234.44;;;26.20;44.94
56992;BME280;42885;49.754;18.636;2023-05-22T09:22:22;98232.17;;;26.34;44.34
56992;BME280;42885;49.754;18.636;2023-05-22T09:24:53;98234.28;;;26.00;43.73
56992;BME280;42885;49.754;18.636;2023-05-22T09:27:27;98227.81;;;25.94;43.04
56992;BME280;42885;49.754;18.636;2023-05-22T09:29:58;98232.11;;;26.38;44.29
56992;BME280;42885;49.754;18.636;2023-05-22T09:32:29;98220.66;;;26.58;43.52
56992;BME280;42885;49.754;18.636;2023-05-22T09:35:04;98227.66;;;26.77;43.07
56992;BME280;42885;49.754;18.636;2023-05-22T09:37:36;98219.25;;;26.62;41.59
56992;BME280;42885;49.754;18.636;2023-05-22T09:40:09;98212.23;;;27.10;41.20
56992;BME280;42885;49.754;18.636;2023-05-22T09:42:45;98213.93;;;27.18;40.58
56992;BME280;42885;49.754;18.636;2023-05-22T09:45:20;98216.26;;;26.86;41.39
56992;BME280;42885;49.754;18.636;2023-05-22T09:47:55;98216.24;;;27.28;39.35
56992;BME280;42885;49.754;18.636;2023-05-22T09:50:26;98220.35;;;26.39;41.61
56992;BME280;42885;49.754;18.636;2023-05-22T09:53:02;98214.98;;;26.57;40.46
56992;BME280;42885;49.754;18.636;2023-05-22T09:55:34;98215.97;;;26.67;41.94
56992;BME280;42885;49.754;18.636;2023-05-22T09:58:06;98208.00;;;27.05;41.33
56992;BME280;42885;49.754;18.636;2023-05-22T10:00:40;98212.84;;;27.05;39.64
56992;BME280;42885;49.754;18.636;2023-05-22T10:03:10;98215.34;;;27.14;40.35
56992;BME280;42885;49.754;18.636;2023-05-22T10:05:45;98213.84;;;28.00;42.22
56992;BME280;42885;49.754;18.636;2023-05-22T10:08:26;98214.52;;;26.07;40.34
56992;BME280;42885;49.754;18.636;2023-05-22T10:10:51;98222.58;;;26.71;41.28
56992;BME280;42885;49.754;18.636;2023-05-22T10:13:23;98220.03;;;27.23;40.80
56992;BME280;42885;49.754;18.636;2023-05-22T10:15:55;98220.57;;;27.73;39.54
56992;BME280;42885;49.754;18.636;2023-05-22T10:18:27;98219.25;;;27.87;38.58
56992;BME280;42885;49.754;18.636;2023-05-22T10:20:59;98216.79;;;27.47;38.51
56992;BME280;42885;49.754;18.636;2023-05-22T10:23:30;98215.95;;;27.47;37.94
56992;BME280;42885;49.754;18.636;2023-05-22T10:26:01;98210.08;;;29.15;39.49
56992;BME280;42885;49.754;18.636;2023-05-22T10:28:40;98219.90;;;27.51;38.60
56992;BME280;42885;49.754;18.636;2023-05-22T10:31:57;98219.63;;;27.57;38.30
56992;BME280;42885;49.754;18.636;2023-05-22T10:33:56;98213.18;;;27.51;38.99
56992;BME280;42885;49.754;18.636;2023-05-22T10:39:12;98213.92;;;28.80;38.54
56992;BME280;42885;49.754;18.636;2023-05-22T10:41:41;98216.30;;;28.56;37.69
56992;BME280;42885;49.754;18.636;2023-05-22T10:44:12;98208.25;;;28.09;37.93
56992;BME280;42885;49.754;18.636;2023-05-22T10:46:48;98217.78;;;28.11;37.62
56992;BME280;42885;49.754;18.636;2023-05-22T10:49:20;98202.20;;;28.61;36.45
56992;BME280;42885;49.754;18.636;2023-05-22T10:51:55;98202.20;;;28.61;36.45
56992;BME280;42885;49.754;18.636;2023-05-22T10:57:15;98218.73;;;27.94;37.15
56992;BME280;42885;49.754;18.636;2023-05-22T10:59:49;98206.69;;;28.80;35.90
56992;BME280;42885;49.754;18.636;2023-05-22T11:02:28;98202.69;;;29.58;35.80
56992;BME280;42885;49.754;18.636;2023-05-22T11:05:41;98197.24;;;29.33;35.68
56992;BME280;42885;49.754;18.636;2023-05-22T11:07:40;98197.46;;;28.79;34.70
56992;BME280;42885;49.754;18.636;2023-05-22T11:10:11;98197.75;;;29.16;34.72
56992;BME280;42885;49.754;18.636;2023-05-22T11:12:43;98194.31;;;29.18;35.21
56992;BME280;42885;49.754;18.636;2023-05-22T11:15:14;98192.62;;;29.24;34.23
56992;BME280;42885;49.754;18.636;2023-05-22T11:17:48;98186.63;;;29.86;33.81
56992;BME280;42885;49.754;18.636;2023-05-22T11:20:23;98186.92;;;29.87;33.63
56992;BME280;42885;49.754;18.636;2023-05-22T11:23:09;98189.61;;;30.13;33.64
56992;BME280;42885;49.754;18.636;2023-05-22T11:25:38;98181.18;;;30.56;33.21
56992;BME280;42885;49.754;18.636;2023-05-22T11:28:11;98182.07;;;30.96;34.02
56992;BME280;42885;49.754;18.636;2023-05-22T11:30:41;98187.73;;;30.67;33.47
56992;BME280;42885;49.754;18.636;2023-05-22T11:33:12;98174.59;;;32.70;34.75
56992;BME280;42885;49.754;18.636;2023-05-22T11:35:46;98190.62;;;30.02;32.79
56992;BME280;42885;49.754;18.636;2023-05-22T11:38:17;98180.28;;;30.62;31.60
56992;BME280;42885;49.754;18.636;2023-05-22T11:40:50;98176.92;;;30.76;32.47
56992;BME280;42885;49.754;18.636;2023-05-22T11:43:28;98182.02;;;30.03;33.02
56992;BME280;42885;49.754;18.636;2023-05-22T11:46:08;98180.06;;;30.63;32.54
56992;BME280;42885;49.754;18.636;2023-05-22T11:48:40;98188.02;;;30.77;32.11
56992;BME280;42885;49.754;18.636;2023-05-22T11:51:11;98183.00;;;32.20;32.88
56992;BME280;42885;49.754;18.636;2023-05-22T11:53:42;98186.57;;;31.02;31.66
56992;BME280;42885;49.754;18.636;2023-05-22T11:56:13;98189.52;;;30.63;32.25
56992;BME280;42885;49.754;18.636;2023-05-22T11:58:46;98178.39;;;31.00;31.13
56992;BME280;42885;49.754;18.636;2023-05-22T12:01:17;98173.84;;;31.31;31.45
56992;BME280;42885;49.754;18.636;2023-05-22T12:03:48;98175.16;;;30.91;32.18
56992;BME280;42885;49.754;18.636;2023-05-22T12:06:19;98175.74;;;30.72;31.86
56992;BME280;42885;49.754;18.636;2023-05-22T12:08:50;98171.50;;;31.16;31.88
56992;BME280;42885;49.754;18.636;2023-05-22T12:11:21;98170.26;;;31.40;32.36
56992;BME280;42885;49.754;18.636;2023-05-22T12:14:02;98175.42;;;32.44;32.51
56992;BME280;42885;49.754;18.636;2023-05-22T12:16:34;98171.58;;;32.30;30.89
56992;BME280;42885;49.754;18.636;2023-05-22T12:19:07;98169.94;;;32.29;32.03
56992;BME280;42885;49.754;18.636;2023-05-22T12:21:38;98173.28;;;32.34;30.37
56992;BME280;42885;49.754;18.636;2023-05-22T12:24:12;98166.02;;;31.86;30.90
56992;BME280;42885;49.754;18.636;2023-05-22T12:26:48;98171.20;;;31.15;30.93
56992;BME280;42885;49.754;18.636;2023-05-22T12:29:17;98165.58;;;32.66;31.55
56992;BME280;42885;49.754;18.636;2023-05-22T12:31:50;98163.25;;;32.58;30.97
56992;BME280;42885;49.754;18.636;2023-05-22T12:34:21;98164.11;;;32.73;30.95
56992;BME280;42885;49.754;18.636;2023-05-22T12:36:52;98165.81;;;33.84;30.52
56992;BME280;42885;49.754;18.636;2023-05-22T12:39:23;98166.67;;;31.70;30.39
56992;BME280;42885;49.754;18.636;2023-05-22T12:41:54;98171.95;;;31.65;29.26
56992;BME280;42885;49.754;18.636;2023-05-22T12:44:25;98175.34;;;31.27;30.31
56992;BME280;42885;49.754;18.636;2023-05-22T12:46:56;98170.40;;;31.45;30.77
56992;BME280;42885;49.754;18.636;2023-05-22T12:49:27;98169.43;;;32.18;30.10
56992;BME280;42885;49.754;18.636;2023-05-22T12:51:58;98166.08;;;32.13;29.10
56992;BME280;42885;49.754;18.636;2023-05-22T12:54:29;98167.02;;;31.83;29.55
56992;BME280;42885;49.754;18.636;2023-05-22T12:57:00;98170.36;;;32.23;30.14
56992;BME280;42885;49.754;18.636;2023-05-22T12:59:31;98158.83;;;33.25;29.48
56992;BME280;42885;49.754;18.636;2023-05-22T13:02:03;98156.93;;;33.71;29.65
56992;BME280;42885;49.754;18.636;2023-05-22T13:04:35;98158.02;;;33.90;28.20
56992;BME280;42885;49.754;18.636;2023-05-22T13:07:06;98161.87;;;33.11;29.43
56992;BME280;42885;49.754;18.636;2023-05-22T13:09:37;98163.56;;;33.61;28.72
56992;BME280;42885;49.754;18.636;2023-05-22T13:12:08;98162.20;;;33.00;28.67
56992;BME280;42885;49.754;18.636;2023-05-22T13:14:39;98172.60;;;32.38;28.72
56992;BME280;42885;49.754;18.636;2023-05-22T13:17:10;98167.24;;;32.41;28.64
56992;BME280;42885;49.754;18.636;2023-05-22T13:19:41;98159.72;;;32.84;28.68
56992;BME280;42885;49.754;18.636;2023-05-22T13:22:13;98168.23;;;33.34;28.70
56992;BME280;42885;49.754;18.636;2023-05-22T13:24:45;98158.30;;;33.91;27.45
56992;BME280;42885;49.754;18.636;2023-05-22T13:27:17;98161.54;;;35.14;27.45
56992;BME280;42885;49.754;18.636;2023-05-22T13:29:48;98168.56;;;34.43;27.26